sensor_id;sensor_type;location;lat;lon;timestamp;P1;durP1;ratioP1;P2;durP2;ratioP2
42478;SDS011;28110;47.080;9.476;2022-11-04T00:01:20;1.02;;;0.20;;
42478;SDS011;28110;47.080;9.476;2022-11-04T00:03:45;0.20;;;0.20;;
42478;SDS011;28110;47.080;9.476;2022-11-04T00:06:11;0.20;;;0.20;;
42478;SDS011;28110;47.080;9.476;2022-11-04T00:08:37;0.10;;;0.10;;
42478;SDS011;28110;47.080;9.476;2022-11-04T00:11:03;0.40;;;0.20;;
42478;SDS011;28110;47.080;9.476;2022-11-04T00:13:54;0.85;;;0.20;;
42478;SDS011;28110;47.080;9.476;2022-11-04T00:16:22;0.68;;;0.20;;
42478;SDS011;28110;47.080;9.476;2022-11-04T00:19:06;0.20;;;0.20;;
42478;SDS011;28110;47.080;9.476;2022-11-04T00:21:31;0.20;;;0.20;;
42478;SDS011;28110;47.080;9.476;2022-11-04T00:24:15;0.30;;;0.30;;
42478;SDS011;28110;47.080;9.476;2022-11-04T00:26:59;0.20;;;0.20;;
42478;SDS011;28110;47.080;9.476;2022-11-04T00:29:44;0.20;;;0.20;;
42478;SDS011;28110;47.080;9.476;2022-11-04T00:32:09;0.77;;;0.20;;
42478;SDS011;28110;47.080;9.476;2022-11-04T00:34:54;0.20;;;0.20;;
42478;SDS011;28110;47.080;9.476;2022-11-04T00:37:19;0.90;;;0.20;;
42478;SDS011;28110;47.080;9.476;2022-11-04T00:39:45;0.70;;;0.27;;
42478;SDS011;28110;47.080;9.476;2022-11-04T00:42:11;0.35;;;0.10;;
42478;SDS011;28110;47.080;9.476;2022-11-04T00:44:36;0.20;;;0.20;;
42478;SDS011;28110;47.080;9.476;2022-11-04T00:47:02;0.13;;;0.13;;
42478;SDS011;28110;47.080;9.476;2022-11-04T00:49:28;0.20;;;0.20;;
42478;SDS011;28110;47.080;9.476;2022-11-04T00:51:53;1.13;;;0.20;;
42478;SDS011;28110;47.080;9.476;2022-11-04T00:54:19;0.20;;;0.20;;
42478;SDS011;28110;47.080;9.476;2022-11-04T00:56:44;0.50;;;0.20;;
42478;SDS011;28110;47.080;9.476;2022-11-04T00:59:12;0.20;;;0.20;;
42478;SDS011;28110;47.080;9.476;2022-11-04T01:01:38;0.22;;;0.20;;
42478;SDS011;28110;47.080;9.476;2022-11-04T01:04:03;0.20;;;0.20;;
42478;SDS011;28110;47.080;9.476;2022-11-04T01:06:29;0.10;;;0.10;;
42478;SDS011;28110;47.080;9.476;2022-11-04T01:08:55;0.10;;;0.10;;
42478;SDS011;28110;47.080;9.476;2022-11-04T01:11:22;1.13;;;0.20;;
42478;SDS011;28110;47.080;9.476;2022-11-04T01:13:49;0.23;;;0.20;;
42478;SDS011;28110;47.080;9.476;2022-11-04T01:16:15;0.20;;;0.20;;
42478;SDS011;28110;47.080;9.476;2022-11-04T01:18:41;0.20;;;0.20;;
42478;SDS011;28110;47.080;9.476;2022-11-04T01:21:07;1.08;;;0.20;;
42478;SDS011;28110;47.080;9.476;2022-11-04T01:23:36;0.10;;;0.10;;
42478;SDS011;28110;47.080;9.476;2022-11-04T01:26:06;0.20;;;0.20;;
42478;SDS011;28110;47.080;9.476;2022-11-04T01:28:33;0.70;;;0.35;;
42478;SDS011;28110;47.080;9.476;2022-11-04T01:30:59;0.20;;;0.20;;
42478;SDS011;28110;47.080;9.476;2022-11-04T01:33:36;1.75;;;0.20;;
42478;SDS011;28110;47.080;9.476;2022-11-04T01:36:02;0.30;;;0.30;;
42478;SDS011;28110;47.080;9.476;2022-11-04T01:38:29;0.30;;;0.20;;
42478;SDS011;28110;47.080;9.476;2022-11-04T01:40:54;0.20;;;0.20;;
42478;SDS011;28110;47.080;9.476;2022-11-04T01:43:20;0.20;;;0.20;;
42478;SDS011;28110;47.080;9.476;2022-11-04T01:45:57;0.20;;;0.20;;
42478;SDS011;28110;47.080;9.476;2022-11-04T01:48:25;0.63;;;0.20;;
42478;SDS011;28110;47.080;9.476;2022-11-04T01:50:55;0.30;;;0.20;;
42478;SDS011;28110;47.080;9.476;2022-11-04T01:53:23;0.20;;;0.20;;
42478;SDS011;28110;47.080;9.476;2022-11-04T01:55:51;0.20;;;0.20;;
42478;SDS011;28110;47.080;9.476;2022-11-04T01:58:20;0.53;;;0.33;;
42478;SDS011;28110;47.080;9.476;2022-11-04T02:00:52;0.20;;;0.20;;
42478;SDS011;28110;47.080;9.476;2022-11-04T02:03:19;0.85;;;0.30;;
42478;SDS011;28110;47.080;9.476;2022-11-04T02:05:50;0.50;;;0.30;;
42478;SDS011;28110;47.080;9.476;2022-11-04T02:08:16;0.30;;;0.22;;
42478;SDS011;28110;47.080;9.476;2022-11-04T02:10:49;0.20;;;0.20;;
42478;SDS011;28110;47.080;9.476;2022-11-04T02:13:21;0.20;;;0.20;;
42478;SDS011;28110;47.080;9.476;2022-11-04T02:27:02;0.30;;;0.30;;
42478;SDS011;28110;47.080;9.476;2022-11-04T02:29:50;0.30;;;0.20;;
42478;SDS011;28110;47.080;9.476;2022-11-04T02:35:21;0.28;;;0.28;;
42478;SDS011;28110;47.080;9.476;2022-11-04T02:38:10;0.68;;;0.30;;
42478;SDS011;28110;47.080;9.476;2022-11-04T02:40:49;0.30;;;0.30;;
42478;SDS011;28110;47.080;9.476;2022-11-04T02:43:47;0.33;;;0.27;;
42478;SDS011;28110;47.080;9.476;2022-11-04T02:46:24;0.80;;;0.30;;
42478;SDS011;28110;47.080;9.476;2022-11-04T02:49:00;1.38;;;0.40;;
42478;SDS011;28110;47.080;9.476;2022-11-04T02:51:43;0.40;;;0.30;;
42478;SDS011;28110;47.080;9.476;2022-11-04T02:54:17;0.47;;;0.40;;
42478;SDS011;28110;47.080;9.476;2022-11-04T02:56:48;0.20;;;0.20;;
42478;SDS011;28110;47.080;9.476;2022-11-04T02:59:24;0.40;;;0.32;;
42478;SDS011;28110;47.080;9.476;2022-11-04T03:02:00;0.60;;;0.40;;
42478;SDS011;28110;47.080;9.476;2022-11-04T03:04:31;1.63;;;0.40;;
42478;SDS011;28110;47.080;9.476;2022-11-04T03:07:00;0.30;;;0.30;;
42478;SDS011;28110;47.080;9.476;2022-11-04T03:09:28;1.03;;;0.33;;
42478;SDS011;28110;47.080;9.476;2022-11-04T03:12:01;0.55;;;0.45;;
42478;SDS011;28110;47.080;9.476;2022-11-04T03:14:36;1.52;;;0.52;;
42478;SDS011;28110;47.080;9.476;2022-11-04T03:17:06;0.43;;;0.35;;
42478;SDS011;28110;47.080;9.476;2022-11-04T03:19:56;0.77;;;0.40;;
42478;SDS011;28110;47.080;9.476;2022-11-04T03:22:24;1.93;;;0.33;;
42478;SDS011;28110;47.080;9.476;2022-11-04T03:24:53;0.50;;;0.40;;
42478;SDS011;28110;47.080;9.476;2022-11-04T03:29:52;0.60;;;0.43;;
42478;SDS011;28110;47.080;9.476;2022-11-04T03:32:33;0.60;;;0.45;;
42478;SDS011;28110;47.080;9.476;2022-11-04T03:35:08;0.50;;;0.30;;
42478;SDS011;28110;47.080;9.476;2022-11-04T03:37:35;0.30;;;0.30;;
42478;SDS011;28110;47.080;9.476;2022-11-04T03:40:01;0.60;;;0.40;;
42478;SDS011;28110;47.080;9.476;2022-11-04T03:42:28;0.40;;;0.33;;
42478;SDS011;28110;47.080;9.476;2022-11-04T03:44:56;1.08;;;0.40;;
42478;SDS011;28110;47.080;9.476;2022-11-04T03:47:23;0.45;;;0.40;;
42478;SDS011;28110;47.080;9.476;2022-11-04T03:49:51;1.02;;;0.50;;
42478;SDS011;28110;47.080;9.476;2022-11-04T03:52:36;0.63;;;0.50;;
42478;SDS011;28110;47.080;9.476;2022-11-04T03:55:03;0.50;;;0.30;;
42478;SDS011;28110;47.080;9.476;2022-11-04T04:05:25;0.40;;;0.40;;
42478;SDS011;28110;47.080;9.476;2022-11-04T04:13:47;0.57;;;0.32;;
42478;SDS011;28110;47.080;9.476;2022-11-04T04:16:33;1.30;;;0.30;;
42478;SDS011;28110;47.080;9.476;2022-11-04T04:19:12;0.40;;;0.30;;
42478;SDS011;28110;47.080;9.476;2022-11-04T04:21:53;0.90;;;0.30;;
42478;SDS011;28110;47.080;9.476;2022-11-04T04:24:26;0.40;;;0.40;;
42478;SDS011;28110;47.080;9.476;2022-11-04T04:27:15;3.22;;;0.32;;
42478;SDS011;28110;47.080;9.476;2022-11-04T04:30:04;0.65;;;0.30;;
42478;SDS011;28110;47.080;9.476;2022-11-04T04:32:41;0.43;;;0.40;;
42478;SDS011;28110;47.080;9.476;2022-11-04T04:35:13;0.53;;;0.40;;
42478;SDS011;28110;47.080;9.476;2022-11-04T04:37:59;0.65;;;0.40;;
42478;SDS011;28110;47.080;9.476;2022-11-04T04:40:49;0.30;;;0.30;;
42478;SDS011;28110;47.080;9.476;2022-11-04T04:43:41;1.10;;;0.50;;
42478;SDS011;28110;47.080;9.476;2022-11-04T04:46:29;1.15;;;0.30;;
42478;SDS011;28110;47.080;9.476;2022-11-04T04:49:02;1.57;;;0.30;;
42478;SDS011;28110;47.080;9.476;2022-11-04T04:51:29;0.88;;;0.40;;
42478;SDS011;28110;47.080;9.476;2022-11-04T04:53:55;0.85;;;0.45;;
42478;SDS011;28110;47.080;9.476;2022-11-04T04:56:20;0.57;;;0.30;;
42478;SDS011;28110;47.080;9.476;2022-11-04T04:58:46;1.05;;;0.30;;
42478;SDS011;28110;47.080;9.476;2022-11-04T05:01:11;0.30;;;0.20;;
42478;SDS011;28110;47.080;9.476;2022-11-04T05:03:37;0.30;;;0.30;;
42478;SDS011;28110;47.080;9.476;2022-11-04T05:06:03;0.55;;;0.30;;
42478;SDS011;28110;47.080;9.476;2022-11-04T05:08:28;0.20;;;0.20;;
42478;SDS011;28110;47.080;9.476;2022-11-04T05:10:54;0.50;;;0.30;;
42478;SDS011;28110;47.080;9.476;2022-11-04T05:13:19;0.50;;;0.20;;
42478;SDS011;28110;47.080;9.476;2022-11-04T05:15:51;0.40;;;0.30;;
42478;SDS011;28110;47.080;9.476;2022-11-04T05:18:17;1.85;;;0.30;;
42478;SDS011;28110;47.080;9.476;2022-11-04T05:20:42;0.68;;;0.30;;
42478;SDS011;28110;47.080;9.476;2022-11-04T05:23:08;1.03;;;0.40;;
42478;SDS011;28110;47.080;9.476;2022-11-04T05:25:36;0.40;;;0.30;;
42478;SDS011;28110;47.080;9.476;2022-11-04T05:28:03;0.80;;;0.45;;
42478;SDS011;28110;47.080;9.476;2022-11-04T05:30:30;1.58;;;0.32;;
42478;SDS011;28110;47.080;9.476;2022-11-04T05:32:56;0.40;;;0.30;;
42478;SDS011;28110;47.080;9.476;2022-11-04T05:35:21;1.38;;;0.50;;
42478;SDS011;28110;47.080;9.476;2022-11-04T05:37:47;0.63;;;0.30;;
42478;SDS011;28110;47.080;9.476;2022-11-04T05:40:12;0.83;;;0.30;;
42478;SDS011;28110;47.080;9.476;2022-11-04T05:42:38;0.50;;;0.30;;
42478;SDS011;28110;47.080;9.476;2022-11-04T05:45:04;0.63;;;0.30;;
42478;SDS011;28110;47.080;9.476;2022-11-04T05:47:30;1.13;;;0.30;;
42478;SDS011;28110;47.080;9.476;2022-11-04T05:49:55;1.30;;;0.40;;
42478;SDS011;28110;47.080;9.476;2022-11-04T05:52:21;0.63;;;0.30;;
42478;SDS011;28110;47.080;9.476;2022-11-04T05:54:46;0.63;;;0.40;;
42478;SDS011;28110;47.080;9.476;2022-11-04T05:57:12;0.33;;;0.30;;
42478;SDS011;28110;47.080;9.476;2022-11-04T05:59:37;0.30;;;0.30;;
42478;SDS011;28110;47.080;9.476;2022-11-04T06:02:03;2.70;;;0.30;;
42478;SDS011;28110;47.080;9.476;2022-11-04T06:04:29;2.20;;;0.30;;
42478;SDS011;28110;47.080;9.476;2022-11-04T06:06:54;1.55;;;0.40;;
42478;SDS011;28110;47.080;9.476;2022-11-04T06:09:20;0.63;;;0.30;;
42478;SDS011;28110;47.080;9.476;2022-11-04T06:12:02;0.47;;;0.35;;
42478;SDS011;28110;47.080;9.476;2022-11-04T06:14:32;1.15;;;0.57;;
42478;SDS011;28110;47.080;9.476;2022-11-04T06:16:58;3.80;;;0.40;;
42478;SDS011;28110;47.080;9.476;2022-11-04T06:19:24;0.63;;;0.30;;
42478;SDS011;28110;47.080;9.476;2022-11-04T06:21:50;0.95;;;0.30;;
42478;SDS011;28110;47.080;9.476;2022-11-04T06:24:16;1.23;;;0.38;;
42478;SDS011;28110;47.080;9.476;2022-11-04T06:26:41;1.17;;;0.30;;
42478;SDS011;28110;47.080;9.476;2022-11-04T06:29:07;1.08;;;0.20;;
42478;SDS011;28110;47.080;9.476;2022-11-04T06:31:33;0.30;;;0.30;;
42478;SDS011;28110;47.080;9.476;2022-11-04T06:33:59;1.42;;;0.40;;
42478;SDS011;28110;47.080;9.476;2022-11-04T06:36:25;1.20;;;0.30;;
42478;SDS011;28110;47.080;9.476;2022-11-04T06:38:50;1.35;;;0.20;;
42478;SDS011;28110;47.080;9.476;2022-11-04T06:41:16;0.40;;;0.30;;
42478;SDS011;28110;47.080;9.476;2022-11-04T06:43:42;0.70;;;0.40;;
42478;SDS011;28110;47.080;9.476;2022-11-04T06:46:30;0.40;;;0.30;;
42478;SDS011;28110;47.080;9.476;2022-11-04T06:48:57;2.72;;;1.38;;
42478;SDS011;28110;47.080;9.476;2022-11-04T06:51:23;1.30;;;0.30;;
42478;SDS011;28110;47.080;9.476;2022-11-04T06:53:49;0.93;;;0.20;;
42478;SDS011;28110;47.080;9.476;2022-11-04T06:56:15;0.60;;;0.30;;
42478;SDS011;28110;47.080;9.476;2022-11-04T06:58:41;0.60;;;0.40;;
42478;SDS011;28110;47.080;9.476;2022-11-04T07:01:06;3.28;;;1.33;;
42478;SDS011;28110;47.080;9.476;2022-11-04T07:03:32;1.20;;;0.60;;
42478;SDS011;28110;47.080;9.476;2022-11-04T07:05:57;0.50;;;0.40;;
42478;SDS011;28110;47.080;9.476;2022-11-04T07:08:23;2.20;;;0.30;;
42478;SDS011;28110;47.080;9.476;2022-11-04T07:10:49;2.33;;;0.40;;
42478;SDS011;28110;47.080;9.476;2022-11-04T07:13:14;1.92;;;1.17;;
42478;SDS011;28110;47.080;9.476;2022-11-04T07:15:41;2.03;;;1.00;;
42478;SDS011;28110;47.080;9.476;2022-11-04T07:18:07;2.33;;;1.00;;
42478;SDS011;28110;47.080;9.476;2022-11-04T07:20:33;1.93;;;1.10;;
42478;SDS011;28110;47.080;9.476;2022-11-04T07:23:00;2.13;;;0.80;;
42478;SDS011;28110;47.080;9.476;2022-11-04T07:25:25;2.75;;;1.05;;
42478;SDS011;28110;47.080;9.476;2022-11-04T07:27:51;2.22;;;1.08;;
42478;SDS011;28110;47.080;9.476;2022-11-04T07:30:16;5.03;;;2.67;;
42478;SDS011;28110;47.080;9.476;2022-11-04T07:32:44;5.35;;;2.25;;
42478;SDS011;28110;47.080;9.476;2022-11-04T07:35:10;1.70;;;0.93;;
42478;SDS011;28110;47.080;9.476;2022-11-04T07:37:36;3.40;;;0.40;;
42478;SDS011;28110;47.080;9.476;2022-11-04T07:40:02;0.80;;;0.40;;
42478;SDS011;28110;47.080;9.476;2022-11-04T07:42:28;1.05;;;0.45;;
42478;SDS011;28110;47.080;9.476;2022-11-04T07:44:54;1.52;;;1.27;;
42478;SDS011;28110;47.080;9.476;2022-11-04T07:47:19;1.63;;;1.25;;
42478;SDS011;28110;47.080;9.476;2022-11-04T07:49:46;0.88;;;0.45;;
42478;SDS011;28110;47.080;9.476;2022-11-04T07:52:11;1.17;;;0.30;;
42478;SDS011;28110;47.080;9.476;2022-11-04T07:54:37;0.30;;;0.30;;
42478;SDS011;28110;47.080;9.476;2022-11-04T07:57:02;1.42;;;0.50;;
42478;SDS011;28110;47.080;9.476;2022-11-04T07:59:28;0.40;;;0.40;;
42478;SDS011;28110;47.080;9.476;2022-11-04T08:01:53;1.53;;;0.40;;
42478;SDS011;28110;47.080;9.476;2022-11-04T08:04:19;3.78;;;1.23;;
42478;SDS011;28110;47.080;9.476;2022-11-04T08:06:45;0.87;;;0.30;;
42478;SDS011;28110;47.080;9.476;2022-11-04T08:09:10;1.63;;;0.23;;
42478;SDS011;28110;47.080;9.476;2022-11-04T08:11:36;0.85;;;0.30;;
42478;SDS011;28110;47.080;9.476;2022-11-04T08:14:02;0.47;;;0.30;;
42478;SDS011;28110;47.080;9.476;2022-11-04T08:16:28;0.45;;;0.30;;
42478;SDS011;28110;47.080;9.476;2022-11-04T08:18:54;0.20;;;0.20;;
42478;SDS011;28110;47.080;9.476;2022-11-04T08:21:25;0.20;;;0.20;;
42478;SDS011;28110;47.080;9.476;2022-11-04T08:23:51;1.08;;;0.25;;
42478;SDS011;28110;47.080;9.476;2022-11-04T08:26:17;0.65;;;0.35;;
42478;SDS011;28110;47.080;9.476;2022-11-04T08:28:44;0.50;;;0.40;;
42478;SDS011;28110;47.080;9.476;2022-11-04T08:31:11;0.32;;;0.20;;
42478;SDS011;28110;47.080;9.476;2022-11-04T08:33:39;1.42;;;0.60;;
42478;SDS011;28110;47.080;9.476;2022-11-04T08:36:07;2.85;;;1.50;;
42478;SDS011;28110;47.080;9.476;2022-11-04T08:38:34;1.98;;;0.82;;
42478;SDS011;28110;47.080;9.476;2022-11-04T08:41:00;8.75;;;3.30;;
42478;SDS011;28110;47.080;9.476;2022-11-04T08:43:28;8.47;;;3.70;;
42478;SDS011;28110;47.080;9.476;2022-11-04T08:45:53;6.97;;;3.05;;
42478;SDS011;28110;47.080;9.476;2022-11-04T08:48:19;7.63;;;3.77;;
42478;SDS011;28110;47.080;9.476;2022-11-04T08:50:49;10.55;;;6.05;;
42478;SDS011;28110;47.080;9.476;2022-11-04T08:53:15;6.80;;;3.92;;
42478;SDS011;28110;47.080;9.476;2022-11-04T08:55:41;8.77;;;5.40;;
42478;SDS011;28110;47.080;9.476;2022-11-04T08:58:06;6.47;;;3.42;;
42478;SDS011;28110;47.080;9.476;2022-11-04T09:00:32;4.15;;;2.78;;
42478;SDS011;28110;47.080;9.476;2022-11-04T09:02:58;1.70;;;1.00;;
42478;SDS011;28110;47.080;9.476;2022-11-04T09:05:24;2.25;;;0.47;;
42478;SDS011;28110;47.080;9.476;2022-11-04T09:07:50;0.93;;;0.80;;
42478;SDS011;28110;47.080;9.476;2022-11-04T09:10:15;0.80;;;0.60;;
42478;SDS011;28110;47.080;9.476;2022-11-04T09:12:42;2.30;;;0.70;;
42478;SDS011;28110;47.080;9.476;2022-11-04T09:15:08;1.13;;;0.70;;
42478;SDS011;28110;47.080;9.476;2022-11-04T09:17:34;0.80;;;0.63;;
42478;SDS011;28110;47.080;9.476;2022-11-04T09:20:00;0.83;;;0.50;;
42478;SDS011;28110;47.080;9.476;2022-11-04T09:22:26;2.15;;;0.40;;
42478;SDS011;28110;47.080;9.476;2022-11-04T09:24:51;0.60;;;0.47;;
42478;SDS011;28110;47.080;9.476;2022-11-04T09:27:17;0.82;;;0.43;;
42478;SDS011;28110;47.080;9.476;2022-11-04T09:29:43;0.77;;;0.60;;
42478;SDS011;28110;47.080;9.476;2022-11-04T09:32:09;1.17;;;0.40;;
42478;SDS011;28110;47.080;9.476;2022-11-04T09:34:34;1.03;;;0.50;;
42478;SDS011;28110;47.080;9.476;2022-11-04T09:37:00;1.87;;;0.80;;
42478;SDS011;28110;47.080;9.476;2022-11-04T09:39:25;2.50;;;0.70;;
42478;SDS011;28110;47.080;9.476;2022-11-04T09:44:43;4.63;;;0.98;;
42478;SDS011;28110;47.080;9.476;2022-11-04T09:47:14;5.68;;;0.57;;
42478;SDS011;28110;47.080;9.476;2022-11-04T09:49:43;6.28;;;0.98;;
42478;SDS011;28110;47.080;9.476;2022-11-04T09:52:14;3.20;;;0.80;;
42478;SDS011;28110;47.080;9.476;2022-11-04T09:54:51;0.70;;;0.70;;
42478;SDS011;28110;47.080;9.476;2022-11-04T09:57:22;4.45;;;0.55;;
42478;SDS011;28110;47.080;9.476;2022-11-04T09:59:48;1.30;;;0.75;;
42478;SDS011;28110;47.080;9.476;2022-11-04T10:02:18;4.90;;;1.10;;
42478;SDS011;28110;47.080;9.476;2022-11-04T10:04:51;1.52;;;0.70;;
42478;SDS011;28110;47.080;9.476;2022-11-04T10:07:47;3.22;;;0.85;;
42478;SDS011;28110;47.080;9.476;2022-11-04T10:21:39;1.48;;;0.63;;
42478;SDS011;28110;47.080;9.476;2022-11-04T10:24:27;1.20;;;0.63;;
42478;SDS011;28110;47.080;9.476;2022-11-04T10:27:15;2.87;;;0.60;;
42478;SDS011;28110;47.080;9.476;2022-11-04T10:30:06;3.10;;;0.70;;
42478;SDS011;28110;47.080;9.476;2022-11-04T10:33:08;4.03;;;0.60;;
42478;SDS011;28110;47.080;9.476;2022-11-04T10:36:06;5.25;;;0.40;;
42478;SDS011;28110;47.080;9.476;2022-11-04T10:38:46;0.85;;;0.70;;
42478;SDS011;28110;47.080;9.476;2022-11-04T10:43:57;0.98;;;0.40;;
42478;SDS011;28110;47.080;9.476;2022-11-04T10:52:09;2.13;;;0.60;;
42478;SDS011;28110;47.080;9.476;2022-11-04T10:54:39;3.10;;;0.57;;
42478;SDS011;28110;47.080;9.476;2022-11-04T10:57:11;3.50;;;0.50;;
42478;SDS011;28110;47.080;9.476;2022-11-04T11:02:56;1.20;;;0.60;;
42478;SDS011;28110;47.080;9.476;2022-11-04T11:07:47;11.67;;;1.07;;
42478;SDS011;28110;47.080;9.476;2022-11-04T11:10:27;1.20;;;0.43;;
42478;SDS011;28110;47.080;9.476;2022-11-04T11:13:03;4.03;;;0.60;;
42478;SDS011;28110;47.080;9.476;2022-11-04T11:15:32;0.95;;;0.57;;
42478;SDS011;28110;47.080;9.476;2022-11-04T11:18:18;1.65;;;0.85;;
42478;SDS011;28110;47.080;9.476;2022-11-04T11:20:48;1.13;;;0.60;;
42478;SDS011;28110;47.080;9.476;2022-11-04T11:23:35;0.80;;;0.50;;
42478;SDS011;28110;47.080;9.476;2022-11-04T11:26:07;2.35;;;0.60;;
42478;SDS011;28110;47.080;9.476;2022-11-04T11:28:35;1.92;;;0.70;;
42478;SDS011;28110;47.080;9.476;2022-11-04T11:31:09;2.10;;;1.00;;
42478;SDS011;28110;47.080;9.476;2022-11-04T11:33:50;0.70;;;0.47;;
42478;SDS011;28110;47.080;9.476;2022-11-04T11:36:23;1.95;;;0.77;;
42478;SDS011;28110;47.080;9.476;2022-11-04T11:41:57;1.35;;;0.50;;
42478;SDS011;28110;47.080;9.476;2022-11-04T11:44:33;1.58;;;0.50;;
42478;SDS011;28110;47.080;9.476;2022-11-04T11:47:06;1.47;;;0.50;;
42478;SDS011;28110;47.080;9.476;2022-11-04T11:49:43;0.75;;;0.40;;
42478;SDS011;28110;47.080;9.476;2022-11-04T11:52:16;1.67;;;0.50;;
42478;SDS011;28110;47.080;9.476;2022-11-04T11:54:41;1.10;;;0.55;;
42478;SDS011;28110;47.080;9.476;2022-11-04T12:00:09;1.57;;;0.40;;
42478;SDS011;28110;47.080;9.476;2022-11-04T12:05:26;1.10;;;0.63;;
42478;SDS011;28110;47.080;9.476;2022-11-04T12:10:45;2.63;;;0.50;;
42478;SDS011;28110;47.080;9.476;2022-11-04T12:13:20;0.33;;;0.30;;
42478;SDS011;28110;47.080;9.476;2022-11-04T12:15:57;1.40;;;0.40;;
42478;SDS011;28110;47.080;9.476;2022-11-04T12:21:34;2.58;;;0.50;;
42478;SDS011;28110;47.080;9.476;2022-11-04T12:32:02;2.63;;;0.47;;
42478;SDS011;28110;47.080;9.476;2022-11-04T12:45:57;0.88;;;0.50;;
42478;SDS011;28110;47.080;9.476;2022-11-04T12:51:55;0.60;;;0.40;;
42478;SDS011;28110;47.080;9.476;2022-11-04T12:57:15;1.42;;;0.50;;
42478;SDS011;28110;47.080;9.476;2022-11-04T13:10:51;0.45;;;0.40;;
42478;SDS011;28110;47.080;9.476;2022-11-04T13:13:14;2.45;;;0.40;;
42478;SDS011;28110;47.080;9.476;2022-11-04T13:15:49;0.88;;;0.50;;
42478;SDS011;28110;47.080;9.476;2022-11-04T13:18:19;0.50;;;0.40;;
42478;SDS011;28110;47.080;9.476;2022-11-04T13:20:53;0.50;;;0.40;;
42478;SDS011;28110;47.080;9.476;2022-11-04T13:23:44;1.08;;;0.50;;
42478;SDS011;28110;47.080;9.476;2022-11-04T13:26:28;0.82;;;0.47;;
42478;SDS011;28110;47.080;9.476;2022-11-04T13:31:40;2.17;;;0.60;;
42478;SDS011;28110;47.080;9.476;2022-11-04T13:34:34;1.03;;;0.73;;
42478;SDS011;28110;47.080;9.476;2022-11-04T13:42:48;0.95;;;0.55;;
42478;SDS011;28110;47.080;9.476;2022-11-04T13:45:44;0.95;;;0.60;;
42478;SDS011;28110;47.080;9.476;2022-11-04T13:48:17;1.20;;;0.70;;
42478;SDS011;28110;47.080;9.476;2022-11-04T13:50:53;1.00;;;0.77;;
42478;SDS011;28110;47.080;9.476;2022-11-04T13:58:57;0.82;;;0.60;;
42478;SDS011;28110;47.080;9.476;2022-11-04T14:01:31;1.30;;;0.70;;
42478;SDS011;28110;47.080;9.476;2022-11-04T14:04:17;1.08;;;0.70;;
42478;SDS011;28110;47.080;9.476;2022-11-04T14:06:51;1.63;;;0.70;;
42478;SDS011;28110;47.080;9.476;2022-11-04T14:09:32;5.95;;;1.02;;
42478;SDS011;28110;47.080;9.476;2022-11-04T14:12:23;1.35;;;0.68;;
42478;SDS011;28110;47.080;9.476;2022-11-04T14:14:53;2.07;;;0.80;;
42478;SDS011;28110;47.080;9.476;2022-11-04T14:20:00;1.52;;;0.70;;
42478;SDS011;28110;47.080;9.476;2022-11-04T14:25:26;0.95;;;0.60;;
42478;SDS011;28110;47.080;9.476;2022-11-04T14:28:00;0.80;;;0.60;;
42478;SDS011;28110;47.080;9.476;2022-11-04T14:30:31;1.10;;;0.50;;
42478;SDS011;28110;47.080;9.476;2022-11-04T14:33:02;1.17;;;0.60;;
42478;SDS011;28110;47.080;9.476;2022-11-04T14:35:41;1.40;;;0.70;;
42478;SDS011;28110;47.080;9.476;2022-11-04T14:38:17;0.80;;;0.57;;
42478;SDS011;28110;47.080;9.476;2022-11-04T14:43:43;1.48;;;0.60;;
42478;SDS011;28110;47.080;9.476;2022-11-04T14:46:12;6.00;;;0.70;;
42478;SDS011;28110;47.080;9.476;2022-11-04T14:48:45;2.72;;;0.60;;
42478;SDS011;28110;47.080;9.476;2022-11-04T14:51:19;2.22;;;0.50;;
42478;SDS011;28110;47.080;9.476;2022-11-04T14:54:04;3.63;;;0.90;;
42478;SDS011;28110;47.080;9.476;2022-11-04T14:56:34;1.35;;;0.50;;
42478;SDS011;28110;47.080;9.476;2022-11-04T14:59:03;2.37;;;0.70;;
42478;SDS011;28110;47.080;9.476;2022-11-04T15:01:31;0.70;;;0.40;;
42478;SDS011;28110;47.080;9.476;2022-11-04T15:04:31;1.20;;;0.50;;
42478;SDS011;28110;47.080;9.476;2022-11-04T15:07:01;2.42;;;0.50;;
42478;SDS011;28110;47.080;9.476;2022-11-04T15:09:30;1.65;;;0.68;;
42478;SDS011;28110;47.080;9.476;2022-11-04T15:14:52;4.78;;;1.42;;
42478;SDS011;28110;47.080;9.476;2022-11-04T15:17:18;3.38;;;1.40;;
42478;SDS011;28110;47.080;9.476;2022-11-04T15:19:47;6.93;;;1.80;;
42478;SDS011;28110;47.080;9.476;2022-11-04T15:22:15;2.30;;;1.60;;
42478;SDS011;28110;47.080;9.476;2022-11-04T15:24:41;3.47;;;0.60;;
42478;SDS011;28110;47.080;9.476;2022-11-04T15:27:11;0.60;;;0.50;;
42478;SDS011;28110;47.080;9.476;2022-11-04T15:29:39;0.88;;;0.70;;
42478;SDS011;28110;47.080;9.476;2022-11-04T15:32:16;1.00;;;0.60;;
42478;SDS011;28110;47.080;9.476;2022-11-04T15:34:42;1.43;;;0.50;;
42478;SDS011;28110;47.080;9.476;2022-11-04T15:37:09;0.70;;;0.43;;
42478;SDS011;28110;47.080;9.476;2022-11-04T15:39:40;1.77;;;0.68;;
42478;SDS011;28110;47.080;9.476;2022-11-04T15:42:10;2.53;;;1.17;;
42478;SDS011;28110;47.080;9.476;2022-11-04T15:45:00;2.45;;;1.45;;
42478;SDS011;28110;47.080;9.476;2022-11-04T15:47:41;7.47;;;2.25;;
42478;SDS011;28110;47.080;9.476;2022-11-04T15:50:23;5.20;;;1.95;;
42478;SDS011;28110;47.080;9.476;2022-11-04T15:52:50;4.03;;;2.00;;
42478;SDS011;28110;47.080;9.476;2022-11-04T15:55:20;2.70;;;1.10;;
42478;SDS011;28110;47.080;9.476;2022-11-04T15:57:47;1.42;;;0.80;;
42478;SDS011;28110;47.080;9.476;2022-11-04T16:02:52;1.10;;;0.70;;
42478;SDS011;28110;47.080;9.476;2022-11-04T16:05:25;3.28;;;1.10;;
42478;SDS011;28110;47.080;9.476;2022-11-04T16:07:54;1.40;;;0.80;;
42478;SDS011;28110;47.080;9.476;2022-11-04T16:10:37;1.20;;;0.77;;
42478;SDS011;28110;47.080;9.476;2022-11-04T16:15:49;1.70;;;0.68;;
42478;SDS011;28110;47.080;9.476;2022-11-04T16:18:22;1.38;;;0.60;;
42478;SDS011;28110;47.080;9.476;2022-11-04T16:21:07;1.55;;;0.60;;
42478;SDS011;28110;47.080;9.476;2022-11-04T16:23:52;0.30;;;0.30;;
42478;SDS011;28110;47.080;9.476;2022-11-04T16:26:25;1.17;;;0.30;;
42478;SDS011;28110;47.080;9.476;2022-11-04T16:28:54;0.82;;;0.30;;
42478;SDS011;28110;47.080;9.476;2022-11-04T16:31:22;0.30;;;0.30;;
42478;SDS011;28110;47.080;9.476;2022-11-04T16:33:50;0.60;;;0.35;;
42478;SDS011;28110;47.080;9.476;2022-11-04T16:36:16;0.53;;;0.30;;
42478;SDS011;28110;47.080;9.476;2022-11-04T16:38:55;0.75;;;0.60;;
42478;SDS011;28110;47.080;9.476;2022-11-04T16:41:23;1.48;;;1.00;;
42478;SDS011;28110;47.080;9.476;2022-11-04T16:43:50;3.83;;;1.20;;
42478;SDS011;28110;47.080;9.476;2022-11-04T16:46:16;2.63;;;1.15;;
42478;SDS011;28110;47.080;9.476;2022-11-04T16:48:42;2.53;;;1.13;;
42478;SDS011;28110;47.080;9.476;2022-11-04T16:51:22;1.98;;;1.17;;
42478;SDS011;28110;47.080;9.476;2022-11-04T16:53:48;2.10;;;1.20;;
42478;SDS011;28110;47.080;9.476;2022-11-04T16:56:15;2.55;;;1.30;;
42478;SDS011;28110;47.080;9.476;2022-11-04T16:58:42;2.97;;;1.30;;
42478;SDS011;28110;47.080;9.476;2022-11-04T17:01:11;2.25;;;1.00;;
42478;SDS011;28110;47.080;9.476;2022-11-04T17:03:38;1.35;;;1.10;;
42478;SDS011;28110;47.080;9.476;2022-11-04T17:06:04;4.50;;;1.63;;
42478;SDS011;28110;47.080;9.476;2022-11-04T17:08:30;4.53;;;1.80;;
42478;SDS011;28110;47.080;9.476;2022-11-04T17:10:56;4.03;;;1.60;;
42478;SDS011;28110;47.080;9.476;2022-11-04T17:13:22;2.75;;;1.20;;
42478;SDS011;28110;47.080;9.476;2022-11-04T17:15:48;3.57;;;1.40;;
42478;SDS011;28110;47.080;9.476;2022-11-04T17:18:13;3.90;;;1.10;;
42478;SDS011;28110;47.080;9.476;2022-11-04T17:20:41;2.13;;;1.10;;
42478;SDS011;28110;47.080;9.476;2022-11-04T17:23:10;2.53;;;1.10;;
42478;SDS011;28110;47.080;9.476;2022-11-04T17:25:36;3.78;;;1.00;;
42478;SDS011;28110;47.080;9.476;2022-11-04T17:28:02;3.90;;;1.33;;
42478;SDS011;28110;47.080;9.476;2022-11-04T17:30:28;4.22;;;1.30;;